Time;durP1;ratioP1;P1;durP2;ratioP2;P2;SDS_P1;SDS_P2;PMS_P1;PMS_P2;Temp;Humidity;BMP_temperature;BMP_pressure;BME280_temperature;BME280_humidity;BME280_pressure;Samples;Min_cycle;Max_cycle;Signal;HPM_P1;HPM_P2
2024/04/16 00:00:02;;;;;;;2.40;1.40;;;18.00;53.10;;;;;;5420744;26;20503;-80
2024/04/16 00:02:33;;;;;;;3.33;2.00;;;18.00;53.00;;;;;;5422385;26;20580;-80
2024/04/16 00:05:00;;;;;;;2.40;1.40;;;18.00;53.30;;;;;;5420462;26;20480;-79
2024/04/16 00:07:30;;;;;;;2.30;1.27;;;18.00;53.30;;;;;;5420635;26;20480;-77
2024/04/16 00:10:00;;;;;;;1.90;1.70;;;18.00;53.00;;;;;;5418274;26;20512;-78
2024/04/16 00:12:31;;;;;;;1.97;1.50;;;18.10;53.30;;;;;;5420701;26;20457;-78
2024/04/16 00:14:58;;;;;;;2.50;1.77;;;18.00;53.10;;;;;;5421739;26;20469;-78
2024/04/16 00:17:28;;;;;;;1.93;1.43;;;18.00;53.00;;;;;;5419173;26;20548;-78
2024/04/16 00:19:56;;;;;;;1.67;1.30;;;18.00;53.30;;;;;;5411060;26;20468;-77
2024/04/16 00:22:26;;;;;;;1.50;1.30;;;18.00;53.30;;;;;;5418854;26;20514;-78
2024/04/16 00:24:54;;;;;;;2.00;1.47;;;18.00;53.30;;;;;;5416273;26;20452;-77
2024/04/16 00:27:27;;;;;;;3.47;1.67;;;17.90;53.10;;;;;;5382183;26;20572;-79
2024/04/16 00:29:54;;;;;;;4.60;1.17;;;17.90;53.50;;;;;;5417789;26;20853;-78
2024/04/16 00:32:24;;;;;;;1.93;1.37;;;18.00;53.40;;;;;;5417868;26;20558;-77
2024/04/16 00:34:52;;;;;;;2.40;1.50;;;18.00;53.30;;;;;;5417586;26;20441;-78
2024/04/16 00:37:23;;;;;;;3.00;1.47;;;18.00;53.10;;;;;;5415532;26;20455;-77
2024/04/16 00:39:50;;;;;;;3.17;1.40;;;17.90;53.10;;;;;;5417038;26;20517;-78
2024/04/16 00:42:21;;;;;;;2.20;1.80;;;17.90;53.30;;;;;;5419414;26;20572;-78
2024/04/16 00:44:51;;;;;;;3.17;1.40;;;17.90;53.70;;;;;;5419206;26;20457;-78
2024/04/16 00:47:21;;;;;;;2.33;1.10;;;17.90;53.40;;;;;;5418148;26;20516;-78
2024/04/16 00:49:49;;;;;;;3.03;1.70;;;17.90;53.10;;;;;;5419843;26;20511;-79
2024/04/16 00:52:19;;;;;;;1.37;1.10;;;17.90;53.50;;;;;;5420278;26;20476;-77
2024/04/16 00:54:46;;;;;;;1.80;1.57;;;17.90;53.40;;;;;;5422441;26;20445;-78
2024/04/16 00:57:16;;;;;;;1.97;1.43;;;17.90;53.40;;;;;;5423535;26;20461;-77
2024/04/16 00:59:44;;;;;;;1.57;1.33;;;17.90;53.40;;;;;;5423011;26;20452;-78
2024/04/16 01:02:17;;;;;;;1.50;1.40;;;17.90;53.60;;;;;;5421807;26;20484;-78
2024/04/16 01:04:46;;;;;;;2.73;1.30;;;17.90;53.50;;;;;;5423591;26;20540;-78
2024/04/16 01:07:16;;;;;;;1.60;1.07;;;17.90;53.70;;;;;;5421257;26;20540;-78
2024/04/16 01:09:44;;;;;;;1.87;1.30;;;17.90;53.60;;;;;;5422785;26;20453;-78
2024/04/16 01:12:14;;;;;;;1.97;0.90;;;17.80;53.60;;;;;;5422586;26;20484;-78
2024/04/16 01:14:42;;;;;;;1.67;1.20;;;17.90;53.60;;;;;;5422466;26;20445;-77
2024/04/16 01:17:11;;;;;;;1.50;1.40;;;17.80;53.60;;;;;;5422402;26;20445;-78
2024/04/16 01:19:42;;;;;;;2.60;1.53;;;17.80;53.60;;;;;;5422451;26;20467;-77
2024/04/16 01:22:13;;;;;;;2.50;1.10;;;17.80;53.50;;;;;;5421844;26;20480;-78
2024/04/16 01:24:43;;;;;;;1.30;1.20;;;17.80;53.40;;;;;;5422465;26;20524;-78
2024/04/16 01:27:13;;;;;;;5.30;1.20;;;17.80;53.40;;;;;;5422474;26;20445;-78
2024/04/16 01:29:40;;;;;;;2.80;1.30;;;17.70;53.50;;;;;;5422203;26;20448;-79
2024/04/16 01:32:10;;;;;;;1.33;1.23;;;17.70;53.50;;;;;;5420115;26;20500;-78
2024/04/16 01:34:38;;;;;;;1.10;1.00;;;17.70;53.40;;;;;;5413452;26;20464;-77
2024/04/16 01:37:08;;;;;;;1.53;1.20;;;17.70;53.50;;;;;;5420619;26;20562;-77
2024/04/16 01:39:35;;;;;;;2.87;1.13;;;17.70;53.60;;;;;;5420132;26;20495;-77
2024/04/16 01:42:10;;;;;;;1.40;1.30;;;17.70;53.20;;;;;;5419892;26;20464;-77
2024/04/16 01:44:37;;;;;;;3.47;1.20;;;17.60;53.10;;;;;;5420412;26;20445;-77
2024/04/16 01:47:07;;;;;;;1.40;1.10;;;17.60;53.40;;;;;;5421658;26;20452;-77
2024/04/16 01:49:35;;;;;;;1.77;1.20;;;17.60;53.10;;;;;;5414077;26;20546;-78
2024/04/16 01:52:06;;;;;;;1.20;1.10;;;17.60;53.20;;;;;;5382973;26;20565;-77
2024/04/16 01:54:33;;;;;;;2.20;1.10;;;17.60;53.40;;;;;;5384757;26;20461;-76
2024/04/16 01:57:05;;;;;;;1.37;1.27;;;17.60;53.10;;;;;;5385960;26;20500;-77
2024/04/16 01:59:35;;;;;;;1.03;1.03;;;17.50;53.30;;;;;;5384872;26;20530;-78
2024/04/16 02:02:06;;;;;;;1.13;0.90;;;17.50;53.20;;;;;;5385288;26;20547;-78
2024/04/16 02:04:33;;;;;;;1.47;1.10;;;17.50;53.20;;;;;;5385366;26;20478;-78
2024/04/16 02:07:04;;;;;;;1.20;0.90;;;17.50;53.30;;;;;;5386335;26;20509;-77
2024/04/16 02:09:33;;;;;;;1.73;0.97;;;17.50;53.30;;;;;;5386173;26;20490;-77
2024/04/16 02:12:04;;;;;;;1.53;1.00;;;17.50;53.20;;;;;;5384214;26;20462;-77
2024/04/16 02:14:31;;;;;;;1.20;1.10;;;17.50;53.50;;;;;;5383760;26;20526;-78
2024/04/16 02:17:04;;;;;;;4.07;1.00;;;17.50;53.20;;;;;;5386326;26;20511;-78
2024/04/16 02:19:31;;;;;;;1.50;1.17;;;17.50;53.40;;;;;;5387363;26;20469;-78
2024/04/16 02:22:02;;;;;;;0.90;0.90;;;17.50;53.60;;;;;;5385605;26;20601;-78
2024/04/16 02:24:29;;;;;;;0.80;0.80;;;17.50;53.30;;;;;;5385801;26;20466;-79
2024/04/16 02:27:00;;;;;;;1.23;0.70;;;17.50;53.50;;;;;;5385202;26;20489;-78
2024/04/16 02:29:27;;;;;;;1.60;0.90;;;17.50;53.30;;;;;;5385304;26;20538;-78
2024/04/16 02:31:57;;;;;;;1.77;0.90;;;17.50;53.50;;;;;;5384705;26;20537;-78
2024/04/16 02:34:27;;;;;;;1.00;1.00;;;17.50;53.50;;;;;;5384915;26;20470;-79
2024/04/16 02:36:58;;;;;;;0.87;0.80;;;17.50;53.40;;;;;;5385683;26;20483;-78
2024/04/16 02:39:25;;;;;;;2.20;0.90;;;17.40;53.70;;;;;;5385969;26;20498;-79
2024/04/16 02:41:55;;;;;;;1.10;1.00;;;17.50;53.80;;;;;;5386082;26;20482;-79
2024/04/16 02:44:23;;;;;;;1.40;0.80;;;17.50;53.60;;;;;;5386225;26;20458;-79
2024/04/16 02:46:53;;;;;;;0.80;0.80;;;17.40;53.80;;;;;;5385439;26;20462;-78
2024/04/16 02:49:20;;;;;;;1.43;0.73;;;17.50;53.80;;;;;;5384744;26;20446;-79
2024/04/16 02:51:53;;;;;;;1.10;0.80;;;17.50;54.30;;;;;;5376890;26;20563;-78
2024/04/16 02:54:21;;;;;;;1.47;0.90;;;17.50;53.80;;;;;;5387930;26;20523;-78
2024/04/16 02:56:51;;;;;;;4.53;0.90;;;17.50;53.90;;;;;;5390142;26;20454;-79
2024/04/16 02:59:18;;;;;;;1.63;0.93;;;17.50;53.80;;;;;;5389785;26;20559;-79
2024/04/16 03:01:48;;;;;;;3.33;1.07;;;17.50;54.00;;;;;;5410083;26;20473;-79
2024/04/16 03:04:16;;;;;;;0.83;0.83;;;17.50;53.80;;;;;;5430419;26;20483;-79
2024/04/16 03:06:46;;;;;;;1.20;1.00;;;17.40;53.90;;;;;;5428087;26;20452;-79
2024/04/16 03:09:16;;;;;;;1.80;0.97;;;17.40;54.00;;;;;;5426531;26;20570;-79
2024/04/16 03:11:46;;;;;;;1.73;0.80;;;17.50;53.90;;;;;;5412271;26;20474;-79
2024/04/16 03:14:15;;;;;;;1.43;0.90;;;17.50;54.10;;;;;;5414872;26;20482;-79
2024/04/16 03:16:45;;;;;;;0.80;0.80;;;17.50;54.00;;;;;;5424227;26;20484;-78
2024/04/16 03:19:12;;;;;;;1.10;0.97;;;17.50;54.00;;;;;;5410390;26;20475;-79
2024/04/16 03:21:43;;;;;;;1.27;1.00;;;17.40;54.10;;;;;;5396729;26;20525;-79
2024/04/16 03:24:10;;;;;;;1.30;1.20;;;17.40;54.10;;;;;;5426380;26;20457;-79
2024/04/16 03:26:43;;;;;;;1.13;0.80;;;17.40;54.00;;;;;;5426031;26;20457;-78
2024/04/16 03:29:10;;;;;;;1.53;1.00;;;17.40;54.00;;;;;;5417110;26;20583;-79
2024/04/16 03:31:40;;;;;;;1.53;1.00;;;17.40;54.10;;;;;;5454719;26;20483;-79
2024/04/16 03:34:08;;;;;;;1.43;1.00;;;17.40;54.20;;;;;;5415568;26;20486;-79
2024/04/16 03:36:38;;;;;;;0.90;0.70;;;17.40;54.30;;;;;;5421056;26;20465;-78
2024/04/16 03:39:08;;;;;;;2.63;0.93;;;17.40;54.20;;;;;;5424778;26;20465;-78
2024/04/16 03:41:38;;;;;;;1.20;1.10;;;17.40;54.10;;;;;;5439247;26;20584;-78
2024/04/16 03:44:11;;;;;;;3.90;0.97;;;17.40;54.20;;;;;;5425552;26;20461;-78
2024/04/16 03:46:39;;;;;;;4.20;0.97;;;17.40;54.10;;;;;;5425864;26;20453;-79
2024/04/16 03:49:09;;;;;;;1.17;0.83;;;17.40;54.30;;;;;;5424972;26;20496;-78
2024/04/16 03:51:36;;;;;;;1.27;0.97;;;17.40;54.40;;;;;;5423425;26;20449;-78
2024/04/16 03:54:06;;;;;;;0.90;0.80;;;17.40;54.20;;;;;;5424636;26;20448;-77
2024/04/16 03:56:34;;;;;;;1.40;1.10;;;17.30;54.30;;;;;;5425087;26;20529;-79
2024/04/16 03:59:15;;;;;;;1.73;1.17;;;17.30;54.40;;;;;;5453621;26;20456;-78
2024/04/16 04:01:46;;;;;;;0.90;0.90;;;17.40;54.40;;;;;;5436464;26;20576;-77
2024/04/16 04:04:16;;;;;;;1.10;1.00;;;17.40;54.50;;;;;;5447354;26;20835;-78
2024/04/16 04:06:44;;;;;;;1.57;1.20;;;17.40;54.30;;;;;;5453207;26;20564;-78
2024/04/16 04:09:14;;;;;;;4.30;0.80;;;17.30;54.30;;;;;;5455403;26;20459;-77
2024/04/16 04:11:41;;;;;;;1.03;0.93;;;17.30;54.20;;;;;;5455925;26;20448;-78
2024/04/16 04:14:11;;;;;;;0.73;0.70;;;17.30;54.50;;;;;;5452860;26;20544;-79
2024/04/16 04:16:39;;;;;;;0.90;0.80;;;17.30;54.40;;;;;;5416404;26;20492;-79
2024/04/16 04:19:11;;;;;;;0.80;0.80;;;17.30;54.40;;;;;;5435205;26;20538;-79
2024/04/16 04:21:39;;;;;;;1.00;0.90;;;17.30;54.20;;;;;;5431746;26;20468;-78
2024/04/16 04:24:10;;;;;;;0.90;0.80;;;17.30;54.40;;;;;;5418652;26;20521;-78
2024/04/16 04:26:49;;;;;;;1.80;1.13;;;17.20;54.20;;;;;;5424487;26;20464;-78
2024/04/16 04:29:19;;;;;;;1.00;0.70;;;17.20;54.10;;;;;;5427969;26;20457;-78
2024/04/16 04:31:47;;;;;;;1.23;0.70;;;17.20;54.20;;;;;;5426719;26;20476;-78
2024/04/16 04:34:19;;;;;;;0.80;0.80;;;17.20;54.00;;;;;;5427710;26;20464;-79
2024/04/16 04:36:47;;;;;;;1.87;0.90;;;17.20;54.20;;;;;;5439054;26;20475;-78
2024/04/16 04:39:17;;;;;;;0.80;0.73;;;17.20;54.30;;;;;;5435665;26;20475;-79
2024/04/16 04:41:45;;;;;;;1.00;0.70;;;17.20;54.00;;;;;;5428747;26;20538;-78
2024/04/16 04:44:15;;;;;;;2.30;0.80;;;17.20;53.90;;;;;;5419162;26;20530;-79
2024/04/16 04:46:42;;;;;;;1.07;0.97;;;17.20;53.80;;;;;;5423606;26;20481;-78
2024/04/16 04:49:12;;;;;;;0.90;0.80;;;17.10;53.70;;;;;;5401422;26;20539;-79
2024/04/16 04:51:42;;;;;;;1.10;0.80;;;17.10;53.90;;;;;;5431449;26;20573;-78
2024/04/16 04:54:13;;;;;;;3.03;0.70;;;17.20;53.80;;;;;;5448541;26;20478;-78
2024/04/16 04:56:40;;;;;;;0.80;0.80;;;17.10;53.60;;;;;;5428467;26;20508;-78
2024/04/16 04:59:10;;;;;;;2.80;0.87;;;17.20;53.70;;;;;;5437101;26;20548;-78
2024/04/16 05:01:38;;;;;;;0.80;0.80;;;17.10;53.40;;;;;;5423777;26;20492;-78
2024/04/16 05:04:08;;;;;;;0.80;0.80;;;17.20;53.70;;;;;;5413159;26;20549;-79
2024/04/16 05:06:37;;;;;;;1.00;1.00;;;17.20;53.70;;;;;;5418171;26;20495;-78
2024/04/16 05:09:10;;;;;;;1.00;0.90;;;17.20;53.60;;;;;;5437309;26;20456;-78
2024/04/16 05:11:38;;;;;;;1.37;0.83;;;17.20;53.50;;;;;;5423518;26;20489;-78
2024/04/16 05:14:09;;;;;;;0.80;0.77;;;17.20;53.50;;;;;;5433680;26;20576;-78
2024/04/16 05:16:36;;;;;;;1.13;1.03;;;17.20;53.90;;;;;;5430416;26;20465;-79
2024/04/16 05:19:06;;;;;;;7.30;1.27;;;17.30;53.70;;;;;;5428888;26;20521;-78
2024/04/16 05:21:34;;;;;;;1.13;0.90;;;17.30;53.50;;;;;;5440359;26;20474;-79
2024/04/16 05:24:05;;;;;;;1.30;1.20;;;17.20;53.60;;;;;;5432416;26;20561;-79
2024/04/16 05:26:35;;;;;;;1.60;1.00;;;17.30;53.60;;;;;;5447165;26;20500;-79
2024/04/16 05:29:06;;;;;;;1.10;1.10;;;17.30;53.70;;;;;;5423794;26;20473;-79
2024/04/16 05:31:33;;;;;;;1.27;0.90;;;17.30;53.70;;;;;;5440033;26;20567;-77
2024/04/16 05:34:04;;;;;;;0.90;0.90;;;17.30;53.70;;;;;;5446958;26;20442;-79
2024/04/16 05:36:31;;;;;;;2.30;1.00;;;17.30;53.50;;;;;;5445467;26;20459;-78
2024/04/16 05:39:01;;;;;;;2.47;1.20;;;17.30;53.50;;;;;;5396929;26;20464;-79
2024/04/16 05:41:29;;;;;;;1.20;1.10;;;17.30;53.50;;;;;;5421927;26;20481;-78
2024/04/16 05:44:03;;;;;;;1.63;0.90;;;17.40;53.60;;;;;;5419154;26;20526;-79
2024/04/16 05:46:31;;;;;;;2.40;0.97;;;17.40;53.40;;;;;;5413973;26;20445;-79
2024/04/16 05:49:01;;;;;;;1.10;1.10;;;17.40;53.40;;;;;;5421478;26;20560;-79
2024/04/16 05:51:29;;;;;;;1.20;1.10;;;17.40;53.50;;;;;;5421057;26;20464;-78
2024/04/16 05:54:00;;;;;;;1.20;1.10;;;17.40;53.60;;;;;;5402779;26;20478;-79
2024/04/16 05:56:28;;;;;;;1.73;1.20;;;17.40;53.50;;;;;;5416579;26;20540;-79
2024/04/16 05:58:58;;;;;;;1.17;1.10;;;17.40;53.60;;;;;;5437060;26;20575;-79
2024/04/16 06:01:28;;;;;;;1.47;1.37;;;17.50;53.50;;;;;;5425644;26;20480;-79
2024/04/16 06:03:59;;;;;;;1.73;1.50;;;17.50;53.70;;;;;;5436082;26;20484;-79
2024/04/16 06:06:27;;;;;;;2.50;1.07;;;17.50;53.50;;;;;;5416928;26;20507;-79
2024/04/16 06:08:57;;;;;;;2.50;1.20;;;17.50;53.70;;;;;;5411097;26;20552;-78
2024/04/16 06:11:24;;;;;;;1.03;1.00;;;17.60;53.70;;;;;;5425994;26;20522;-80
2024/04/16 06:13:54;;;;;;;1.00;0.87;;;17.60;53.70;;;;;;5425587;26;20476;-79
2024/04/16 06:16:22;;;;;;;1.37;1.00;;;17.70;53.70;;;;;;5417335;26;20466;-80
2024/04/16 06:18:56;;;;;;;3.43;1.10;;;17.70;53.60;;;;;;5416922;26;20532;-78
2024/04/16 06:21:23;;;;;;;1.57;1.00;;;17.80;53.70;;;;;;5415730;26;20567;-80
2024/04/16 06:23:53;;;;;;;1.47;1.23;;;17.90;53.70;;;;;;5390538;26;20478;-79
2024/04/16 06:26:20;;;;;;;2.50;1.60;;;18.10;54.30;;;;;;5385418;26;20462;-79
2024/04/16 06:28:51;;;;;;;3.17;1.67;;;18.10;53.70;;;;;;5390493;26;20463;-79
2024/04/16 06:31:18;;;;;;;2.10;1.27;;;18.30;53.60;;;;;;5420411;26;20536;-78
2024/04/16 06:33:48;;;;;;;3.60;1.30;;;18.40;53.60;;;;;;5437590;26;20468;-79
2024/04/16 06:36:18;;;;;;;1.57;1.03;;;18.40;53.40;;;;;;5416830;26;20520;-78
2024/04/16 06:38:48;;;;;;;1.77;0.90;;;18.40;53.50;;;;;;5425155;26;20467;-77
2024/04/16 06:41:15;;;;;;;1.53;1.10;;;18.50;53.50;;;;;;5405620;26;20513;-80
2024/04/16 06:43:46;;;;;;;1.40;1.07;;;18.50;53.50;;;;;;5425120;26;20525;-79
2024/04/16 06:46:14;;;;;;;5.07;1.33;;;18.50;53.70;;;;;;5426611;26;20479;-80
2024/04/16 06:48:44;;;;;;;1.00;0.90;;;18.50;53.80;;;;;;5425210;26;20499;-79
2024/04/16 06:51:24;;;;;;;1.50;1.40;;;18.40;53.80;;;;;;5415245;26;20535;-78
2024/04/16 06:53:55;;;;;;;1.00;0.90;;;18.40;53.90;;;;;;5412308;26;20530;-79
2024/04/16 06:56:22;;;;;;;1.57;1.20;;;18.50;54.00;;;;;;5424095;26;20461;-79
2024/04/16 06:58:52;;;;;;;2.00;0.93;;;18.50;54.00;;;;;;5420218;26;20544;-78
2024/04/16 07:01:25;;;;;;;2.33;1.30;;;18.50;54.10;;;;;;5419667;26;20469;-79
2024/04/16 07:03:57;;;;;;;3.07;1.30;;;18.50;53.90;;;;;;5395045;26;20486;-78
2024/04/16 07:06:28;;;;;;;5.17;1.73;;;18.60;54.00;;;;;;5402451;26;20525;-79
2024/04/16 07:09:03;;;;;;;1.53;1.20;;;18.50;54.00;;;;;;5426078;26;20482;-80
2024/04/16 07:11:35;;;;;;;1.40;1.00;;;18.50;54.10;;;;;;5429077;26;20503;-79
2024/04/16 07:28:39;;;;;;;1.20;1.00;;;18.60;54.40;;;;;;5596752;25;20481;-78
2024/04/16 07:31:06;;;;;;;1.60;1.23;;;18.50;54.40;;;;;;5490196;25;1283941;-76
2024/04/16 07:33:49;;;;;;;3.77;1.60;;;18.50;54.70;;;;;;5526898;25;20244;-77
2024/04/16 07:36:26;;;;;;;1.23;1.13;;;18.50;54.50;;;;;;5515254;25;20463;-76
2024/04/16 07:39:02;;;;;;;1.40;1.10;;;18.60;54.60;;;;;;5522837;25;20445;-77
2024/04/16 07:41:52;;;;;;;1.10;1.00;;;18.50;54.40;;;;;;5520701;25;20440;-76
2024/04/16 07:45:00;;;;;;;2.60;1.03;;;18.60;54.70;;;;;;5515349;25;20481;-76
2024/04/16 07:47:34;;;;;;;2.07;1.40;;;18.60;55.00;;;;;;5529069;25;20459;-77
2024/04/16 07:50:10;;;;;;;1.90;1.10;;;18.60;54.90;;;;;;5510568;25;20481;-77
2024/04/16 07:52:37;;;;;;;1.47;1.10;;;18.60;54.90;;;;;;5513588;25;20465;-78
2024/04/16 07:55:08;;;;;;;3.37;1.40;;;18.60;54.70;;;;;;5511864;25;20520;-77
2024/04/16 07:57:36;;;;;;;5.50;1.30;;;18.60;54.90;;;;;;5515035;25;20512;-78
2024/04/16 08:00:10;;;;;;;1.50;0.90;;;18.60;54.90;;;;;;5519654;25;20467;-78
2024/04/16 08:02:40;;;;;;;1.10;0.90;;;18.60;55.00;;;;;;5510557;25;20472;-78
2024/04/16 08:05:13;;;;;;;3.43;1.20;;;18.80;55.10;;;;;;5518789;25;20556;-78
2024/04/16 08:07:41;;;;;;;0.90;0.80;;;18.80;55.00;;;;;;5521819;25;20469;-78
2024/04/16 08:10:15;;;;;;;1.73;0.90;;;19.00;55.00;;;;;;5519665;25;20469;-79
2024/04/16 08:12:43;;;;;;;2.30;1.00;;;19.10;55.00;;;;;;5512403;25;20528;-78
2024/04/16 08:15:15;;;;;;;1.63;0.80;;;19.30;55.10;;;;;;5518523;25;20533;-79
2024/04/16 08:17:43;;;;;;;1.53;0.90;;;19.30;54.90;;;;;;5508709;25;20481;-78
2024/04/16 08:20:16;;;;;;;0.80;0.80;;;19.30;54.90;;;;;;5519211;25;20524;-78
2024/04/16 08:22:44;;;;;;;1.07;0.90;;;19.30;54.80;;;;;;5526650;25;20476;-78
2024/04/16 08:25:14;;;;;;;1.07;1.00;;;19.40;54.90;;;;;;5503965;25;20511;-77
2024/04/16 08:27:47;;;;;;;1.60;0.93;;;19.40;54.90;;;;;;5493868;26;20525;-78
2024/04/16 08:30:24;;;;;;;2.00;0.87;;;19.40;54.90;;;;;;5499365;26;20485;-78
2024/04/16 08:32:51;;;;;;;3.43;1.37;;;19.40;54.90;;;;;;5493510;26;20574;-78
2024/04/16 08:35:29;;;;;;;1.87;0.93;;;19.40;54.90;;;;;;5446840;26;20598;-79
2024/04/16 08:37:56;;;;;;;0.90;0.77;;;19.40;54.80;;;;;;5499526;26;20470;-78
2024/04/16 08:40:27;;;;;;;1.30;0.87;;;19.50;54.90;;;;;;5504608;26;20466;-78
2024/04/16 08:42:54;;;;;;;0.70;0.70;;;19.50;54.90;;;;;;5506256;26;20488;-78
2024/04/16 08:45:27;;;;;;;3.57;1.37;;;19.50;54.80;;;;;;5502013;25;20468;-77
2024/04/16 08:48:01;;;;;;;1.67;1.17;;;19.50;54.80;;;;;;5506638;26;20464;-79
2024/04/16 08:50:56;;;;;;;2.87;0.90;;;19.60;54.90;;;;;;5489619;25;20520;-79
2024/04/16 08:53:25;;;;;;;2.03;0.87;;;19.70;55.10;;;;;;5489122;26;20474;-78
2024/04/16 08:55:56;;;;;;;1.63;1.20;;;19.90;54.80;;;;;;5500618;26;20588;-78
2024/04/16 08:58:24;;;;;;;1.40;0.87;;;20.00;54.80;;;;;;5496974;26;20462;-78
2024/04/16 09:00:56;;;;;;;0.90;0.90;;;20.00;54.80;;;;;;5502711;26;20541;-78
2024/04/16 09:03:25;;;;;;;2.67;0.90;;;20.10;54.80;;;;;;5506231;25;20554;-79
2024/04/16 09:05:55;;;;;;;2.50;0.90;;;20.10;54.80;;;;;;5501612;26;20474;-78
2024/04/16 09:08:32;;;;;;;0.97;0.90;;;20.10;54.70;;;;;;5500845;26;20485;-78
2024/04/16 09:11:00;;;;;;;2.30;1.10;;;20.20;54.80;;;;;;5499783;26;21011;-79
2024/04/16 09:13:30;;;;;;;1.43;0.90;;;20.20;54.80;;;;;;5508734;26;20465;-79
2024/04/16 09:16:03;;;;;;;1.10;1.00;;;20.30;54.70;;;;;;5494226;26;20530;-79
2024/04/16 09:18:34;;;;;;;1.50;1.00;;;20.40;54.70;;;;;;5512976;26;20466;-79
2024/04/16 09:21:02;;;;;;;2.10;1.00;;;20.50;54.60;;;;;;5502778;26;20528;-79
2024/04/16 09:23:32;;;;;;;0.87;0.87;;;20.50;54.50;;;;;;5489569;26;20490;-79
2024/04/16 09:25:59;;;;;;;1.03;0.90;;;20.60;54.60;;;;;;5490248;26;20472;-79
2024/04/16 09:28:30;;;;;;;0.80;0.80;;;20.70;54.40;;;;;;5505622;26;20477;-79
2024/04/16 09:30:58;;;;;;;1.07;0.97;;;20.80;54.40;;;;;;5503826;26;20525;-78
2024/04/16 09:33:32;;;;;;;1.10;1.00;;;20.90;54.30;;;;;;5489259;26;20466;-79
2024/04/16 09:36:11;;;;;;;2.23;0.77;;;21.00;54.40;;;;;;5490031;26;20497;-79
2024/04/16 09:38:43;;;;;;;1.10;0.97;;;21.10;54.40;;;;;;5497024;26;20566;-78
2024/04/16 09:41:13;;;;;;;15.07;1.20;;;21.20;54.40;;;;;;5488997;26;20458;-78
2024/04/16 09:43:45;;;;;;;1.23;1.10;;;21.20;54.30;;;;;;5489495;26;20466;-79
2024/04/16 09:46:20;;;;;;;1.10;0.90;;;21.30;54.20;;;;;;5495853;26;20563;-78
2024/04/16 09:48:59;;;;;;;1.30;0.80;;;21.30;54.10;;;;;;5516944;26;20464;-78
2024/04/16 09:51:26;;;;;;;0.90;0.70;;;21.30;54.10;;;;;;5490644;26;20474;-76
2024/04/16 09:53:58;;;;;;;1.07;0.80;;;21.40;54.20;;;;;;5494454;26;20462;-77
2024/04/16 09:56:25;;;;;;;0.80;0.80;;;21.50;54.10;;;;;;5489378;26;20516;-76
2024/04/16 09:58:56;;;;;;;1.10;0.77;;;21.50;54.10;;;;;;5504378;26;20492;-75
2024/04/16 10:01:24;;;;;;;1.23;1.10;;;21.40;54.20;;;;;;5489318;26;20465;-77
2024/04/16 10:03:57;;;;;;;1.73;0.80;;;21.40;54.90;;;;;;5486904;26;20517;-77
2024/04/16 10:06:25;;;;;;;1.33;0.80;;;21.30;54.30;;;;;;5503706;26;20476;-77
2024/04/16 10:08:55;;;;;;;1.23;0.93;;;21.30;54.50;;;;;;5515322;26;20481;-77
2024/04/16 10:11:23;;;;;;;1.10;0.70;;;21.20;54.40;;;;;;5498480;26;20473;-78
2024/04/16 10:14:01;;;;;;;0.90;0.90;;;21.20;54.60;;;;;;5508021;26;21005;-77
2024/04/16 10:16:28;;;;;;;2.40;0.90;;;21.20;54.70;;;;;;5489418;26;20470;-77
2024/04/16 10:19:01;;;;;;;1.33;0.80;;;21.10;54.60;;;;;;5504263;26;21055;-76
2024/04/16 10:21:36;;;;;;;1.93;0.70;;;21.10;54.60;;;;;;5511628;26;20515;-77
2024/04/16 10:24:09;;;;;;;1.97;0.87;;;21.10;54.80;;;;;;5524525;26;20436;-76
2024/04/16 10:26:41;;;;;;;0.90;0.90;;;21.00;54.60;;;;;;5496613;26;20478;-77
2024/04/16 10:29:15;;;;;;;1.43;0.80;;;21.00;54.70;;;;;;5489680;26;20478;-77
2024/04/16 10:31:44;;;;;;;1.00;1.00;;;21.10;54.70;;;;;;5488265;26;20482;-76
2024/04/16 10:34:27;;;;;;;1.23;0.83;;;21.10;54.70;;;;;;5514570;26;20453;-78
2024/04/16 10:36:55;;;;;;;1.03;0.93;;;21.00;54.70;;;;;;5499248;26;20519;-78
2024/04/16 10:39:31;;;;;;;1.63;1.00;;;21.00;54.50;;;;;;5498313;26;20488;-76
2024/04/16 10:42:01;;;;;;;1.00;1.00;;;21.00;54.60;;;;;;5491631;26;20469;-77
2024/04/16 10:44:31;;;;;;;2.20;1.60;;;20.90;54.50;;;;;;5508604;26;20469;-78
2024/04/16 10:46:59;;;;;;;5.97;1.10;;;20.90;54.60;;;;;;5497948;26;20474;-76
2024/04/16 10:49:33;;;;;;;1.50;1.27;;;20.90;55.20;;;;;;5509543;26;20532;-77
2024/04/16 10:52:08;;;;;;;1.10;1.00;;;20.90;54.70;;;;;;5515388;26;20468;-78
2024/04/16 10:54:38;;;;;;;1.63;1.10;;;20.90;54.70;;;;;;5488483;26;20501;-78
2024/04/16 10:57:06;;;;;;;2.27;2.07;;;20.90;54.60;;;;;;5499117;26;20579;-78
2024/04/16 10:59:36;;;;;;;1.57;1.17;;;20.90;54.70;;;;;;5494718;26;20466;-78
2024/04/16 11:02:04;;;;;;;2.13;1.37;;;20.90;54.70;;;;;;5517457;26;20550;-76
2024/04/16 11:04:37;;;;;;;2.53;1.50;;;20.90;54.60;;;;;;5510381;26;20476;-77
2024/04/16 11:07:05;;;;;;;2.07;1.30;;;21.00;54.60;;;;;;5506892;26;20474;-76
2024/04/16 11:09:35;;;;;;;1.30;1.20;;;21.00;54.50;;;;;;5488799;26;20466;-77
2024/04/16 11:12:04;;;;;;;1.20;1.10;;;21.10;54.50;;;;;;5505599;26;20484;-77
2024/04/16 11:14:34;;;;;;;1.30;1.30;;;21.10;54.50;;;;;;5500311;26;20464;-77
2024/04/16 11:17:03;;;;;;;2.83;1.40;;;21.10;54.30;;;;;;5498908;26;20524;-78
2024/04/16 11:19:33;;;;;;;1.70;1.37;;;21.20;54.30;;;;;;5495137;26;20568;-77
2024/04/16 11:22:03;;;;;;;1.47;1.37;;;21.20;54.20;;;;;;5506124;26;20486;-79
2024/04/16 11:24:33;;;;;;;2.83;1.80;;;21.20;54.10;;;;;;5497719;26;20487;-78
2024/04/16 11:27:01;;;;;;;1.50;1.40;;;21.10;54.00;;;;;;5499698;26;20496;-77
2024/04/16 11:29:31;;;;;;;2.00;1.80;;;21.10;54.10;;;;;;5510662;26;20556;-77
2024/04/16 11:31:59;;;;;;;1.63;1.53;;;21.20;54.10;;;;;;5499462;25;20554;-78
2024/04/16 11:34:28;;;;;;;3.30;1.90;;;21.20;54.10;;;;;;5506665;26;20476;-77
2024/04/16 11:36:56;;;;;;;2.10;2.00;;;21.20;54.00;;;;;;5495351;26;20850;-77
2024/04/16 11:39:34;;;;;;;2.57;2.37;;;21.20;54.00;;;;;;5510966;26;20485;-78
2024/04/16 11:42:01;;;;;;;2.47;2.00;;;21.20;53.90;;;;;;5507398;26;20492;-78
2024/04/16 11:44:31;;;;;;;2.00;1.90;;;21.30;53.80;;;;;;5492748;26;20468;-79
2024/04/16 11:46:58;;;;;;;2.30;2.10;;;21.30;53.70;;;;;;5506880;26;20911;-78
2024/04/16 11:49:29;;;;;;;2.60;2.40;;;21.30;53.70;;;;;;5494965;26;20478;-80
2024/04/16 11:51:56;;;;;;;2.10;1.97;;;21.20;53.70;;;;;;5496465;21;20474;-76
2024/04/16 11:54:32;;;;;;;2.57;2.30;;;21.20;53.70;;;;;;5365463;26;21002;-75
2024/04/16 11:57:03;;;;;;;2.63;2.30;;;21.20;53.80;;;;;;5366280;26;20463;-77
2024/04/16 11:59:36;;;;;;;2.70;1.97;;;21.30;53.80;;;;;;5382367;26;20521;-75
2024/04/16 12:02:04;;;;;;;2.87;2.13;;;21.30;53.90;;;;;;5375564;26;20542;-76
2024/04/16 12:04:36;;;;;;;3.13;1.90;;;21.40;54.00;;;;;;5369106;26;20547;-77
2024/04/16 12:07:04;;;;;;;2.30;2.10;;;21.60;54.10;;;;;;5371453;26;20534;-76
2024/04/16 12:09:34;;;;;;;3.50;2.40;;;22.20;54.50;;;;;;5380857;26;20458;-76
2024/04/16 12:12:04;;;;;;;4.03;2.67;;;22.70;53.40;;;;;;5366213;26;20476;-76
2024/04/16 12:14:34;;;;;;;2.67;2.47;;;22.80;52.40;;;;;;5357364;26;20877;-77
2024/04/16 12:17:01;;;;;;;3.83;2.20;;;23.20;54.00;;;;;;5369721;26;20475;-77
2024/04/16 12:19:32;;;;;;;5.40;2.20;;;24.50;53.90;;;;;;5378489;26;20495;-77
2024/04/16 12:22:00;;;;;;;2.83;2.57;;;26.10;51.50;;;;;;5379151;26;20489;-77
2024/04/16 12:24:31;;;;;;;2.30;2.20;;;26.60;47.40;;;;;;5362334;26;20599;-78
2024/04/16 12:27:00;;;;;;;2.50;2.30;;;26.10;46.90;;;;;;5373048;26;20496;-76
2024/04/16 12:29:33;;;;;;;3.23;2.10;;;25.90;47.30;;;;;;5369757;26;20599;-77
2024/04/16 12:32:01;;;;;;;2.20;2.10;;;25.40;47.60;;;;;;5354084;26;20523;-78
2024/04/16 12:34:34;;;;;;;2.47;2.20;;;25.10;48.30;;;;;;5368849;26;20595;-77
2024/04/16 12:37:01;;;;;;;3.33;2.40;;;24.70;48.70;;;;;;5376712;26;20528;-76
2024/04/16 12:39:31;;;;;;;2.27;2.00;;;24.40;49.20;;;;;;5380159;26;20486;-77
2024/04/16 12:42:00;;;;;;;3.27;1.83;;;24.10;49.60;;;;;;5381361;26;20522;-78
2024/04/16 12:44:33;;;;;;;1.90;1.80;;;23.80;50.10;;;;;;5383998;26;20474;-76
2024/04/16 12:47:00;;;;;;;2.30;2.10;;;23.60;50.60;;;;;;5357649;26;20444;-76
2024/04/16 12:49:30;;;;;;;1.97;1.87;;;23.40;51.00;;;;;;5375509;26;20470;-78
2024/04/16 12:51:58;;;;;;;2.67;2.47;;;23.20;51.20;;;;;;5360791;26;20504;-76
2024/04/16 12:54:28;;;;;;;2.27;2.07;;;23.10;51.50;;;;;;5363526;26;20462;-77
2024/04/16 12:56:57;;;;;;;2.90;2.03;;;23.10;51.70;;;;;;5371155;26;20592;-76
2024/04/16 12:59:30;;;;;;;5.13;2.13;;;23.00;51.90;;;;;;5367929;26;20468;-76
2024/04/16 13:02:01;;;;;;;2.00;1.80;;;23.00;52.00;;;;;;5362089;26;20474;-77
2024/04/16 13:04:31;;;;;;;1.70;1.60;;;22.90;52.10;;;;;;5380546;26;20466;-77
2024/04/16 13:06:59;;;;;;;1.83;1.73;;;22.90;52.30;;;;;;5377535;26;20474;-75
2024/04/16 13:09:30;;;;;;;2.00;1.90;;;22.80;52.40;;;;;;5378334;26;20454;-77
2024/04/16 13:11:58;;;;;;;2.30;1.70;;;22.80;52.60;;;;;;5375721;26;20458;-77
2024/04/16 13:14:28;;;;;;;2.57;2.23;;;23.40;52.90;;;;;;5339936;26;20486;-77